createdAt,value
2019-01-31T00:01:30.903Z,-0.60
2019-01-31T00:04:25.982Z,-0.60
2019-01-31T00:07:24.146Z,-0.60
2019-01-31T00:10:16.679Z,-0.60
2019-01-31T00:12:58.242Z,-0.60
2019-01-31T00:15:36.350Z,-0.50
2019-01-31T00:18:14.907Z,-0.50
2019-01-31T00:20:47.666Z,-0.50
2019-01-31T00:23:39.548Z,-0.40
2019-01-31T00:26:21.792Z,-0.50
2019-01-31T00:29:12.843Z,-0.40
2019-01-31T00:31:57.061Z,-0.40
2019-01-31T00:35:02.632Z,-0.40
2019-01-31T00:37:35.290Z,-0.50
2019-01-31T00:40:27.567Z,-0.50
2019-01-31T00:43:12.287Z,-0.50
2019-01-31T00:46:13.590Z,-0.60
2019-01-31T00:48:46.174Z,-0.70
2019-01-31T00:51:24.915Z,-0.70
2019-01-31T00:54:03.381Z,-0.70
2019-01-31T00:56:38.994Z,-0.70
2019-01-31T00:59:31.413Z,-0.80
2019-01-31T01:02:28.915Z,-0.90
2019-01-31T01:05:04.293Z,-0.80
2019-01-31T01:07:48.799Z,-0.70
2019-01-31T01:10:39.515Z,-0.70
2019-01-31T01:13:14.742Z,-0.70
2019-01-31T01:15:48.159Z,-0.70
2019-01-31T01:18:38.528Z,-0.70
2019-01-31T01:21:25.924Z,-0.70
2019-01-31T01:24:10.415Z,-0.60
2019-01-31T01:26:46.135Z,-0.60
2019-01-31T01:29:24.650Z,-0.60
2019-01-31T01:32:09.209Z,-0.80
2019-01-31T01:35:00.923Z,-0.80
2019-01-31T01:37:51.844Z,-0.90
2019-01-31T01:40:27.165Z,-0.90
2019-01-31T01:43:14.654Z,-0.90
2019-01-31T01:46:02.926Z,-0.90
2019-01-31T01:48:38.295Z,-0.90
2019-01-31T01:51:32.795Z,-0.80
2019-01-31T01:54:21.698Z,-0.80
2019-01-31T01:57:16.778Z,-0.80
2019-01-31T02:00:09.067Z,-0.80
2019-01-31T02:02:44.621Z,-0.80
2019-01-31T02:05:35.308Z,-0.80
2019-01-31T02:08:07.924Z,-1.00
2019-01-31T02:10:52.302Z,-1.10
2019-01-31T02:13:36.627Z,-1.10
2019-01-31T02:16:29.170Z,-1.10
2019-01-31T02:19:04.434Z,-1.10
2019-01-31T02:21:55.193Z,-1.00
2019-01-31T02:24:37.106Z,-1.00
2019-01-31T02:27:24.658Z,-1.00
2019-01-31T02:30:09.384Z,-1.00
2019-01-31T02:32:45.514Z,-1.00
2019-01-31T02:35:23.924Z,-0.90
2019-01-31T02:38:02.562Z,-1.00
2019-01-31T02:40:47.309Z,-1.00
2019-01-31T02:43:22.582Z,-1.10
2019-01-31T02:46:01.875Z,-1.20
2019-01-31T02:48:43.016Z,-1.20
2019-01-31T02:51:21.953Z,-1.20
2019-01-31T02:54:00.546Z,-1.20
2019-01-31T02:56:33.239Z,-1.20
2019-01-31T02:59:28.815Z,-1.30
2019-01-31T03:02:05.457Z,-1.20
2019-01-31T03:04:56.643Z,-1.30
2019-01-31T03:07:29.254Z,-1.20
2019-01-31T03:10:16.558Z,-1.30
2019-01-31T03:13:11.727Z,-1.30
2019-01-31T03:15:49.854Z,-1.30
2019-01-31T03:18:31.466Z,-1.30
2019-01-31T03:21:04.090Z,-1.20
2019-01-31T03:23:44.850Z,-1.20
2019-01-31T03:26:29.263Z,-1.20
2019-01-31T03:29:32.999Z,-1.30
2019-01-31T03:32:11.404Z,-1.40
2019-01-31T03:34:46.722Z,-1.40
2019-01-31T03:37:53.828Z,-1.50
2019-01-31T03:40:29.222Z,-1.60
2019-01-31T03:43:10.771Z,-1.60
2019-01-31T03:46:04.280Z,-1.60
2019-01-31T03:48:47.806Z,-1.60
2019-01-31T03:51:35.268Z,-1.60
2019-01-31T03:54:13.906Z,-1.50
2019-01-31T03:56:52.611Z,-1.50
2019-01-31T03:59:25.201Z,-1.50
2019-01-31T04:02:31.970Z,-1.50
2019-01-31T04:05:13.796Z,-1.40
2019-01-31T04:07:43.478Z,-1.60
2019-01-31T04:10:19.123Z,-1.70
2019-01-31T04:12:44.394Z,-1.60
2019-01-31T04:15:14.088Z,-1.70
2019-01-31T04:17:43.720Z,-1.80
2019-01-31T04:20:13.436Z,-1.90
2019-01-31T04:22:43.319Z,-1.90
2019-01-31T04:25:12.960Z,-1.80
2019-01-31T04:27:42.526Z,-1.70
2019-01-31T04:30:14.813Z,-1.70
2019-01-31T04:32:44.386Z,-1.70
2019-01-31T04:35:14.036Z,-1.70
2019-01-31T04:37:43.654Z,-1.70
2019-01-31T04:40:13.406Z,-1.70
2019-01-31T04:42:42.980Z,-1.70
2019-01-31T04:45:12.717Z,-1.80
2019-01-31T04:47:42.218Z,-1.90
2019-01-31T04:50:14.019Z,-2.00
2019-01-31T04:52:43.628Z,-2.00
2019-01-31T04:55:13.267Z,-1.80
2019-01-31T04:57:42.910Z,-1.90
2019-01-31T05:00:16.457Z,-1.90
2019-01-31T05:02:46.277Z,-1.90
2019-01-31T05:05:16.010Z,-1.90
2019-01-31T05:07:46.275Z,-1.90
2019-01-31T05:10:15.916Z,-1.90
2019-01-31T05:12:45.571Z,-1.80
2019-01-31T05:15:16.172Z,-1.80
2019-01-31T05:17:45.670Z,-1.80
2019-01-31T05:20:17.321Z,-1.80
2019-01-31T05:22:47.327Z,-1.80
2019-01-31T05:25:16.971Z,-2.00
2019-01-31T05:27:46.698Z,-2.10
2019-01-31T05:30:17.573Z,-2.10
2019-01-31T05:32:47.146Z,-2.00
2019-01-31T05:35:16.774Z,-2.00
2019-01-31T05:37:46.324Z,-1.80
2019-01-31T05:40:16.054Z,-1.80
2019-01-31T05:42:45.827Z,-1.90
2019-01-31T05:45:16.506Z,-2.00
2019-01-31T05:47:46.008Z,-2.10
2019-01-31T05:50:17.235Z,-2.10
2019-01-31T05:52:47.067Z,-2.10
2019-01-31T05:55:16.788Z,-2.10
2019-01-31T05:57:46.435Z,-2.20
2019-01-31T06:00:22.874Z,-2.20
2019-01-31T06:02:52.618Z,-2.10
2019-01-31T06:05:22.623Z,-2.20
2019-01-31T06:07:52.234Z,-2.20
2019-01-31T06:10:21.726Z,-2.10
2019-01-31T06:12:53.495Z,-2.00
2019-01-31T06:15:23.018Z,-2.20
2019-01-31T06:17:52.802Z,-2.20
2019-01-31T06:20:24.740Z,-2.00
2019-01-31T06:22:55.104Z,-2.00
2019-01-31T06:25:24.763Z,-2.10
2019-01-31T06:27:54.314Z,-2.10
2019-01-31T06:30:23.906Z,-2.20
2019-01-31T06:32:53.475Z,-2.30
2019-01-31T06:35:23.045Z,-2.40
2019-01-31T06:37:52.575Z,-2.30
2019-01-31T06:40:22.214Z,-2.30
2019-01-31T06:42:53.383Z,-2.20
2019-01-31T06:45:23.074Z,-2.10
2019-01-31T06:47:52.701Z,-2.10
2019-01-31T06:50:22.333Z,-2.10
2019-01-31T06:52:52.106Z,-2.10
2019-01-31T06:55:21.742Z,-2.30
2019-01-31T06:57:51.249Z,-2.20
2019-01-31T07:00:23.014Z,-2.10
2019-01-31T07:02:52.730Z,-2.20
2019-01-31T07:05:22.226Z,-2.30
2019-01-31T07:07:51.762Z,-2.30
2019-01-31T07:10:24.003Z,-2.30
2019-01-31T07:12:53.567Z,-2.20
2019-01-31T07:15:23.404Z,-2.20
2019-01-31T07:17:53.102Z,-2.30
2019-01-31T07:20:22.682Z,-2.40
2019-01-31T07:22:52.449Z,-2.50
2019-01-31T07:25:24.090Z,-2.60
2019-01-31T07:27:53.726Z,-2.60
2019-01-31T07:30:26.729Z,-2.50
2019-01-31T07:32:55.600Z,-2.50
2019-01-31T07:35:25.321Z,-2.50
2019-01-31T07:37:55.075Z,-2.50
2019-01-31T07:40:24.718Z,-2.60
2019-01-31T07:42:54.425Z,-2.60
2019-01-31T07:45:29.408Z,-2.60
2019-01-31T07:47:59.187Z,-2.60
2019-01-31T07:50:28.830Z,-2.40
2019-01-31T07:52:59.082Z,-2.40
2019-01-31T07:55:28.586Z,-2.40
2019-01-31T07:57:58.241Z,-2.50
2019-01-31T08:00:28.799Z,-2.50
2019-01-31T08:02:58.511Z,-2.40
2019-01-31T08:05:28.209Z,-2.30
2019-01-31T08:07:58.675Z,-2.40
2019-01-31T08:10:33.951Z,-2.40
2019-01-31T08:13:03.870Z,-2.40
2019-01-31T08:15:33.518Z,-2.30
2019-01-31T08:18:03.146Z,-2.30
2019-01-31T08:20:32.824Z,-2.30
2019-01-31T08:23:02.508Z,-2.20
2019-01-31T08:25:32.287Z,-2.10
2019-01-31T08:28:02.033Z,-2.10
2019-01-31T08:30:40.323Z,-2.20
2019-01-31T08:33:09.965Z,-2.10
2019-01-31T08:35:39.607Z,-2.10
2019-01-31T08:38:09.796Z,-2.10
2019-01-31T08:40:39.372Z,-2.10
2019-01-31T08:43:08.875Z,-2.10
2019-01-31T08:45:38.418Z,-2.20
2019-01-31T08:48:08.058Z,-2.10
2019-01-31T08:50:37.898Z,-2.00
2019-01-31T08:53:07.515Z,-1.80
2019-01-31T08:55:37.083Z,-1.80
2019-01-31T08:58:06.757Z,-1.80
2019-01-31T09:00:36.583Z,-1.70
2019-01-31T09:03:06.254Z,-1.70
2019-01-31T09:05:36.115Z,-1.60
2019-01-31T09:08:05.802Z,-1.60
2019-01-31T09:10:38.408Z,-1.50
2019-01-31T09:13:09.889Z,-1.40
2019-01-31T09:15:39.626Z,-1.30
2019-01-31T09:18:09.275Z,-1.20
2019-01-31T09:20:56.830Z,-1.00
2019-01-31T09:23:32.334Z,-0.60
2019-01-31T09:26:16.903Z,-0.20
2019-01-31T09:29:10.510Z,0.30
2019-01-31T09:31:58.235Z,0.70
2019-01-31T09:34:39.430Z,1.10
2019-01-31T09:37:26.723Z,1.50
2019-01-31T09:40:18.494Z,1.90
2019-01-31T09:42:56.843Z,1.30
2019-01-31T09:45:32.340Z,0.90
2019-01-31T09:48:13.775Z,0.40
2019-01-31T09:50:49.535Z,0.30
2019-01-31T09:53:28.090Z,0.40
2019-01-31T09:56:34.714Z,0.90
2019-01-31T09:59:24.542Z,1.40
2019-01-31T10:02:17.014Z,2.00
2019-01-31T10:05:12.854Z,2.10
2019-01-31T10:07:51.483Z,2.50
2019-01-31T10:11:00.762Z,2.80
2019-01-31T10:13:45.184Z,2.70
2019-01-31T10:16:20.518Z,3.10
2019-01-31T10:18:55.786Z,3.50
2019-01-31T10:21:40.267Z,3.80
2019-01-31T10:24:12.893Z,4.10
2019-01-31T10:26:50.623Z,4.10
2019-01-31T10:29:38.027Z,4.30
2019-01-31T10:32:25.378Z,3.50
2019-01-31T10:35:06.452Z,3.40
2019-01-31T10:37:39.065Z,3.00
2019-01-31T10:40:34.150Z,2.40
2019-01-31T10:43:21.730Z,2.10
2019-01-31T10:45:57.102Z,1.80
2019-01-31T10:48:32.508Z,1.70
2019-01-31T10:51:13.936Z,1.60
2019-01-31T10:53:58.430Z,1.70
2019-01-31T10:56:51.475Z,2.10
2019-01-31T10:59:30.010Z,2.00
2019-01-31T11:02:08.831Z,2.10
2019-01-31T11:04:50.126Z,1.90
2019-01-31T11:07:37.493Z,1.70
2019-01-31T11:10:26.990Z,1.60
2019-01-31T11:13:20.783Z,1.70
2019-01-31T11:16:10.059Z,1.70
2019-01-31T11:18:42.647Z,1.80
2019-01-31T11:21:27.068Z,1.80
2019-01-31T11:24:11.618Z,2.10
2019-01-31T11:26:52.719Z,2.10
2019-01-31T11:29:42.027Z,2.30
2019-01-31T11:32:38.523Z,1.90
2019-01-31T11:35:37.244Z,2.00
2019-01-31T11:38:15.764Z,1.80
2019-01-31T11:41:21.406Z,1.60
2019-01-31T11:44:15.074Z,1.40
2019-01-31T11:47:04.086Z,1.20
2019-01-31T11:49:39.580Z,1.20
2019-01-31T11:52:31.779Z,1.20
2019-01-31T11:55:28.745Z,1.20
2019-01-31T11:58:16.451Z,1.10
2019-01-31T12:00:46.282Z,1.10
2019-01-31T12:03:15.853Z,1.20
2019-01-31T12:05:46.519Z,1.20
2019-01-31T12:08:16.307Z,1.10
2019-01-31T12:10:45.946Z,1.00
2019-01-31T12:13:23.294Z,1.00
2019-01-31T12:15:46.894Z,0.90
2019-01-31T12:18:16.478Z,0.90
2019-01-31T12:20:46.186Z,0.80
2019-01-31T12:23:16.130Z,0.70
2019-01-31T12:25:45.698Z,0.70
2019-01-31T12:28:15.270Z,0.60
2019-01-31T12:30:44.950Z,0.70
2019-01-31T12:33:15.091Z,0.80
2019-01-31T12:35:44.774Z,0.80
2019-01-31T12:38:14.483Z,0.80
2019-01-31T12:40:43.986Z,0.90
2019-01-31T12:43:13.702Z,1.00
2019-01-31T12:45:43.878Z,1.10
2019-01-31T12:48:13.443Z,1.10
2019-01-31T12:50:43.183Z,1.00
2019-01-31T12:53:12.782Z,1.00
2019-01-31T12:55:42.427Z,1.00
2019-01-31T12:58:12.042Z,0.90
2019-01-31T13:00:41.654Z,0.90
2019-01-31T13:03:11.228Z,0.90
2019-01-31T13:05:40.961Z,0.80
2019-01-31T13:08:11.473Z,0.70
2019-01-31T13:10:41.106Z,0.60
2019-01-31T13:13:10.612Z,0.50
2019-01-31T13:15:40.890Z,0.50
2019-01-31T13:18:10.800Z,0.50
2019-01-31T13:20:40.027Z,0.40
2019-01-31T13:23:09.702Z,0.20
2019-01-31T13:25:39.363Z,0.30
2019-01-31T13:28:09.195Z,0.20
2019-01-31T13:30:38.978Z,0.20
2019-01-31T13:33:08.782Z,0.20
2019-01-31T13:35:38.458Z,0.30
2019-01-31T13:38:08.180Z,0.40
2019-01-31T13:40:37.822Z,0.40
2019-01-31T13:43:07.462Z,0.40
2019-01-31T13:45:37.146Z,0.50
2019-01-31T13:48:08.790Z,0.60
2019-01-31T13:50:38.532Z,0.60
2019-01-31T13:53:08.515Z,0.60
2019-01-31T13:55:38.251Z,0.60
2019-01-31T13:58:10.066Z,0.70
2019-01-31T14:00:39.262Z,0.60
2019-01-31T14:03:08.910Z,0.50
2019-01-31T14:05:38.849Z,0.40
2019-01-31T14:08:08.526Z,0.50
2019-01-31T14:10:38.104Z,0.50
2019-01-31T14:13:07.758Z,0.60
2019-01-31T14:15:37.453Z,0.80
2019-01-31T14:18:07.019Z,0.90
2019-01-31T14:20:36.675Z,0.80
2019-01-31T14:23:06.519Z,0.90
2019-01-31T14:25:36.217Z,0.90
2019-01-31T14:28:06.040Z,1.00
2019-01-31T14:30:37.813Z,0.90
2019-01-31T14:33:09.862Z,0.80
2019-01-31T14:35:39.370Z,0.70
2019-01-31T14:38:08.982Z,0.70
2019-01-31T14:40:38.483Z,0.70
2019-01-31T14:43:08.302Z,0.60
2019-01-31T14:45:38.278Z,0.60
2019-01-31T14:48:08.540Z,0.50
2019-01-31T14:50:39.878Z,0.50
2019-01-31T14:53:09.505Z,0.60
2019-01-31T14:55:57.133Z,0.60
2019-01-31T14:58:27.826Z,0.60
2019-01-31T15:00:57.395Z,0.60
2019-01-31T15:03:26.909Z,0.60
2019-01-31T15:05:57.244Z,0.60
2019-01-31T15:08:26.959Z,0.50
2019-01-31T15:10:56.787Z,0.50
2019-01-31T15:13:26.322Z,0.50
2019-01-31T15:15:55.902Z,0.50
2019-01-31T15:18:25.482Z,0.40
2019-01-31T15:20:55.024Z,0.40
2019-01-31T15:23:24.679Z,0.40
2019-01-31T15:25:54.518Z,0.40
2019-01-31T15:28:24.104Z,0.40
2019-01-31T15:30:53.670Z,0.40
2019-01-31T15:33:24.202Z,0.40
2019-01-31T15:35:53.819Z,0.40
2019-01-31T15:38:23.321Z,0.30
2019-01-31T15:40:53.122Z,0.20
2019-01-31T15:43:22.767Z,0.20
2019-01-31T15:45:52.722Z,0.10
2019-01-31T15:48:22.211Z,0.20
2019-01-31T15:51:03.267Z,0.10
2019-01-31T15:53:34.374Z,0.00
2019-01-31T15:56:05.090Z,0.00
2019-01-31T15:58:34.780Z,0.00
2019-01-31T16:01:06.679Z,0.10
2019-01-31T16:03:36.315Z,0.10
2019-01-31T16:06:07.196Z,0.00
2019-01-31T16:08:46.298Z,0.00
2019-01-31T16:11:16.159Z,-0.10
2019-01-31T16:13:45.800Z,-0.10
2019-01-31T16:16:15.435Z,-0.10
2019-01-31T16:18:45.035Z,-0.20
2019-01-31T16:21:14.691Z,-0.20
2019-01-31T16:23:44.258Z,-0.30
2019-01-31T16:26:13.940Z,-0.40
2019-01-31T16:28:43.444Z,-0.30
2019-01-31T16:31:13.119Z,-0.30
2019-01-31T16:33:42.795Z,-0.30
2019-01-31T16:36:12.447Z,-0.30
2019-01-31T16:38:42.267Z,-0.30
2019-01-31T16:41:11.883Z,-0.30
2019-01-31T16:43:41.467Z,-0.40
2019-01-31T16:46:10.971Z,-0.40
2019-01-31T16:48:40.604Z,-0.40
2019-01-31T16:51:18.224Z,-0.40
2019-01-31T16:53:47.966Z,-0.30
2019-01-31T16:56:17.905Z,-0.20
2019-01-31T16:58:47.684Z,-0.20
2019-01-31T17:01:17.327Z,-0.30
2019-01-31T17:03:46.912Z,-0.10
2019-01-31T17:06:16.435Z,0.00
2019-01-31T17:08:46.137Z,0.10
2019-01-31T17:11:15.838Z,0.10
2019-01-31T17:13:45.406Z,0.10
2019-01-31T17:16:14.931Z,0.10
2019-01-31T17:18:44.445Z,0.10
2019-01-31T17:21:14.120Z,0.00
2019-01-31T17:23:43.870Z,0.00
2019-01-31T17:26:13.737Z,0.00
2019-01-31T17:28:43.243Z,-0.10
2019-01-31T17:31:13.309Z,-0.10
2019-01-31T17:33:42.887Z,-0.10
2019-01-31T17:36:12.471Z,-0.10
2019-01-31T17:38:42.099Z,-0.10
2019-01-31T17:41:11.764Z,-0.10
2019-01-31T17:43:41.273Z,-0.10
2019-01-31T17:46:12.082Z,-0.10
2019-01-31T17:48:41.583Z,-0.10
2019-01-31T17:51:13.054Z,-0.10
2019-01-31T17:53:42.738Z,-0.10
2019-01-31T17:56:12.314Z,-0.20
2019-01-31T17:58:42.535Z,-0.20
2019-01-31T18:01:12.067Z,-0.20
2019-01-31T18:03:41.648Z,-0.20
2019-01-31T18:06:11.282Z,-0.20
2019-01-31T18:08:41.760Z,-0.20
2019-01-31T18:11:11.509Z,-0.10
2019-01-31T18:13:41.092Z,0.00
2019-01-31T18:16:11.604Z,-0.10
2019-01-31T18:18:41.110Z,-0.10
2019-01-31T18:21:12.957Z,-0.10
2019-01-31T18:23:41.926Z,-0.10
2019-01-31T18:26:11.566Z,-0.20
2019-01-31T18:28:41.159Z,-0.30
2019-01-31T18:31:11.771Z,-0.20
2019-01-31T18:33:41.382Z,-0.20
2019-01-31T18:36:10.900Z,-0.10
2019-01-31T18:38:40.428Z,-0.10
2019-01-31T18:41:10.006Z,-0.10
2019-01-31T18:43:39.520Z,-0.10
2019-01-31T18:46:09.202Z,-0.20
2019-01-31T18:48:38.818Z,-0.20
2019-01-31T18:51:08.661Z,-0.10
2019-01-31T18:53:38.346Z,-0.10
2019-01-31T18:56:08.043Z,-0.20
2019-01-31T18:58:37.691Z,-0.20
2019-01-31T19:01:07.491Z,-0.20
2019-01-31T19:03:37.145Z,-0.20
2019-01-31T19:06:06.898Z,-0.20
2019-01-31T19:08:39.873Z,-0.20
2019-01-31T19:11:09.705Z,-0.10
2019-01-31T19:13:39.206Z,-0.10
2019-01-31T19:16:08.826Z,-0.10
2019-01-31T19:18:38.396Z,-0.10
2019-01-31T19:21:08.146Z,-0.10
2019-01-31T19:23:37.821Z,-0.10
2019-01-31T19:26:07.469Z,-0.10
2019-01-31T19:28:37.008Z,-0.10
2019-01-31T19:31:07.642Z,0.00
2019-01-31T19:33:37.278Z,0.10
2019-01-31T19:36:06.988Z,0.10
2019-01-31T19:38:36.590Z,0.20
2019-01-31T19:41:06.241Z,0.20
2019-01-31T19:43:35.891Z,0.30
2019-01-31T19:46:15.769Z,0.20
2019-01-31T19:48:36.890Z,0.20
2019-01-31T19:51:06.583Z,0.20
2019-01-31T19:53:36.126Z,0.30
2019-01-31T19:56:05.870Z,0.20
2019-01-31T19:58:35.374Z,0.20
2019-01-31T20:01:08.203Z,0.20
2019-01-31T20:03:37.960Z,0.20
2019-01-31T20:06:07.641Z,0.20
2019-01-31T20:08:37.176Z,0.30
2019-01-31T20:11:06.818Z,0.30
2019-01-31T20:13:36.449Z,0.30
2019-01-31T20:16:06.209Z,0.30
2019-01-31T20:18:44.498Z,0.30
2019-01-31T20:21:14.810Z,0.30
2019-01-31T20:23:44.796Z,0.40
2019-01-31T20:26:14.514Z,0.40
2019-01-31T20:28:44.046Z,0.40
2019-01-31T20:31:13.851Z,0.30
2019-01-31T20:33:43.485Z,0.30
2019-01-31T20:36:13.159Z,0.40
2019-01-31T20:38:42.728Z,0.40
2019-01-31T20:41:12.371Z,0.40
2019-01-31T20:43:42.049Z,0.50
2019-01-31T20:46:11.652Z,0.50
2019-01-31T20:48:41.214Z,0.50
2019-01-31T20:51:12.747Z,0.40
2019-01-31T20:53:42.472Z,0.40
2019-01-31T20:56:12.193Z,0.50
2019-01-31T20:58:44.597Z,0.50
2019-01-31T21:01:13.138Z,0.50
2019-01-31T21:03:42.707Z,0.50
2019-01-31T21:06:12.471Z,0.50
2019-01-31T21:08:41.998Z,0.50
2019-01-31T21:11:11.809Z,0.50
2019-01-31T21:13:41.898Z,0.50
2019-01-31T21:16:11.645Z,0.50
2019-01-31T21:18:41.204Z,0.50
2019-01-31T21:21:11.898Z,0.50
2019-01-31T21:23:41.436Z,0.50
2019-01-31T21:26:11.004Z,0.50
2019-01-31T21:28:40.632Z,0.50
2019-01-31T21:31:10.398Z,0.40
2019-01-31T21:33:40.039Z,0.50
2019-01-31T21:36:09.710Z,0.50
2019-01-31T21:38:39.401Z,0.40
2019-01-31T21:41:09.066Z,0.50
2019-01-31T21:43:38.746Z,0.50
2019-01-31T21:46:08.390Z,0.50
2019-01-31T21:48:38.031Z,0.60
2019-01-31T21:51:07.987Z,0.50
2019-01-31T21:53:37.594Z,0.50
2019-01-31T21:56:08.903Z,0.60
2019-01-31T21:58:38.513Z,0.60
2019-01-31T22:01:08.188Z,0.60
2019-01-31T22:03:37.812Z,0.60
2019-01-31T22:06:07.494Z,0.60
2019-01-31T22:08:37.085Z,0.60
2019-01-31T22:11:06.799Z,0.60
2019-01-31T22:13:36.423Z,0.60
2019-01-31T22:16:05.997Z,0.60
2019-01-31T22:18:35.558Z,0.60
2019-01-31T22:21:05.967Z,0.60
2019-01-31T22:23:35.539Z,0.60
2019-01-31T22:26:05.183Z,0.60
2019-01-31T22:28:35.611Z,0.60
2019-01-31T22:31:05.359Z,0.60
2019-01-31T22:33:35.011Z,0.60
2019-01-31T22:36:05.476Z,0.50
2019-01-31T22:38:35.047Z,0.60
2019-01-31T22:41:04.611Z,0.60
2019-01-31T22:43:34.202Z,0.60
2019-01-31T22:46:03.773Z,0.60
2019-01-31T22:48:33.404Z,0.60
2019-01-31T22:51:03.083Z,0.70
2019-01-31T22:53:32.649Z,0.70
2019-01-31T22:56:02.143Z,0.70
2019-01-31T22:58:31.787Z,0.70
2019-01-31T23:01:08.822Z,0.70
2019-01-31T23:03:40.163Z,0.80
2019-01-31T23:06:10.358Z,0.80
2019-01-31T23:08:40.036Z,0.80
2019-01-31T23:11:10.368Z,0.80
2019-01-31T23:13:39.863Z,0.80
2019-01-31T23:16:13.292Z,0.80
2019-01-31T23:18:42.971Z,0.80
2019-01-31T23:21:12.674Z,0.80
2019-01-31T23:23:42.247Z,0.80
2019-01-31T23:26:11.846Z,0.90
2019-01-31T23:28:41.547Z,0.80
2019-01-31T23:31:11.386Z,0.80
2019-01-31T23:33:41.297Z,0.80
2019-01-31T23:36:10.975Z,0.60
2019-01-31T23:38:40.619Z,0.70
2019-01-31T23:41:10.359Z,0.70
2019-01-31T23:43:39.923Z,0.70
2019-01-31T23:46:09.558Z,0.70
2019-01-31T23:48:39.776Z,0.80
2019-01-31T23:51:09.491Z,0.80
2019-01-31T23:54:09.959Z,0.70
2019-01-31T23:56:53.031Z,0.70
2019-01-31T23:59:22.578Z,0.70
